sensor_id;sensor_type;location;lat;lon;timestamp;P1;durP1;ratioP1;P2;durP2;ratioP2
17345;SDS011;8790;53.590;10.002;2022-08-03T00:02:06;7.35;;;6.65;;
17345;SDS011;8790;53.590;10.002;2022-08-03T00:04:38;7.40;;;6.70;;
17345;SDS011;8790;53.590;10.002;2022-08-03T00:07:10;7.28;;;6.57;;
17345;SDS011;8790;53.590;10.002;2022-08-03T00:09:41;7.40;;;6.70;;
17345;SDS011;8790;53.590;10.002;2022-08-03T00:12:13;8.00;;;6.75;;
17345;SDS011;8790;53.590;10.002;2022-08-03T00:14:46;6.80;;;6.20;;
17345;SDS011;8790;53.590;10.002;2022-08-03T00:17:18;7.70;;;7.00;;
17345;SDS011;8790;53.590;10.002;2022-08-03T00:19:50;8.65;;;7.03;;
17345;SDS011;8790;53.590;10.002;2022-08-03T00:22:22;7.63;;;6.93;;
17345;SDS011;8790;53.590;10.002;2022-08-03T00:24:53;7.75;;;7.03;;
17345;SDS011;8790;53.590;10.002;2022-08-03T00:27:25;7.88;;;7.07;;
17345;SDS011;8790;53.590;10.002;2022-08-03T00:29:58;7.68;;;6.93;;
17345;SDS011;8790;53.590;10.002;2022-08-03T00:32:30;7.45;;;6.40;;
17345;SDS011;8790;53.590;10.002;2022-08-03T00:35:02;8.13;;;7.32;;
17345;SDS011;8790;53.590;10.002;2022-08-03T00:37:34;8.60;;;6.95;;
17345;SDS011;8790;53.590;10.002;2022-08-03T00:40:06;8.20;;;7.00;;
17345;SDS011;8790;53.590;10.002;2022-08-03T00:42:45;7.35;;;6.53;;
17345;SDS011;8790;53.590;10.002;2022-08-03T00:45:24;7.30;;;6.70;;
17345;SDS011;8790;53.590;10.002;2022-08-03T00:47:58;7.53;;;6.68;;
17345;SDS011;8790;53.590;10.002;2022-08-03T00:50:30;7.45;;;6.70;;
17345;SDS011;8790;53.590;10.002;2022-08-03T00:53:05;8.48;;;7.65;;
17345;SDS011;8790;53.590;10.002;2022-08-03T00:55:38;7.50;;;6.70;;
17345;SDS011;8790;53.590;10.002;2022-08-03T00:58:10;7.55;;;6.88;;
17345;SDS011;8790;53.590;10.002;2022-08-03T01:00:43;7.57;;;6.72;;
17345;SDS011;8790;53.590;10.002;2022-08-03T01:03:15;8.52;;;6.65;;
17345;SDS011;8790;53.590;10.002;2022-08-03T01:05:48;8.32;;;6.80;;
17345;SDS011;8790;53.590;10.002;2022-08-03T01:08:27;7.10;;;6.40;;
17345;SDS011;8790;53.590;10.002;2022-08-03T01:11:09;7.28;;;6.32;;
17345;SDS011;8790;53.590;10.002;2022-08-03T01:13:47;7.93;;;7.13;;
17345;SDS011;8790;53.590;10.002;2022-08-03T01:16:27;8.35;;;6.97;;
17345;SDS011;8790;53.590;10.002;2022-08-03T01:19:05;8.35;;;6.82;;
17345;SDS011;8790;53.590;10.002;2022-08-03T01:21:56;7.20;;;6.53;;
17345;SDS011;8790;53.590;10.002;2022-08-03T01:24:42;7.35;;;6.70;;
17345;SDS011;8790;53.590;10.002;2022-08-03T01:27:20;7.90;;;7.10;;
17345;SDS011;8790;53.590;10.002;2022-08-03T01:30:00;7.60;;;6.80;;
17345;SDS011;8790;53.590;10.002;2022-08-03T01:32:40;7.50;;;6.68;;
17345;SDS011;8790;53.590;10.002;2022-08-03T01:35:18;6.80;;;6.30;;
17345;SDS011;8790;53.590;10.002;2022-08-03T01:37:56;7.60;;;6.90;;
17345;SDS011;8790;53.590;10.002;2022-08-03T01:40:33;7.57;;;6.88;;
17345;SDS011;8790;53.590;10.002;2022-08-03T01:43:06;7.80;;;7.00;;
17345;SDS011;8790;53.590;10.002;2022-08-03T01:45:42;7.35;;;6.65;;
17345;SDS011;8790;53.590;10.002;2022-08-03T01:48:14;7.75;;;6.78;;
17345;SDS011;8790;53.590;10.002;2022-08-03T01:50:48;6.95;;;6.25;;
17345;SDS011;8790;53.590;10.002;2022-08-03T01:53:21;7.30;;;6.60;;
17345;SDS011;8790;53.590;10.002;2022-08-03T01:55:54;7.10;;;6.50;;
17345;SDS011;8790;53.590;10.002;2022-08-03T01:58:28;7.22;;;6.63;;
17345;SDS011;8790;53.590;10.002;2022-08-03T02:01:04;7.35;;;6.65;;
17345;SDS011;8790;53.590;10.002;2022-08-03T02:03:37;7.18;;;6.57;;
17345;SDS011;8790;53.590;10.002;2022-08-03T02:06:12;7.55;;;6.85;;
17345;SDS011;8790;53.590;10.002;2022-08-03T02:08:45;7.47;;;6.78;;
17345;SDS011;8790;53.590;10.002;2022-08-03T02:11:18;7.45;;;6.82;;
17345;SDS011;8790;53.590;10.002;2022-08-03T02:13:50;7.32;;;6.68;;
17345;SDS011;8790;53.590;10.002;2022-08-03T02:16:24;7.13;;;6.53;;
17345;SDS011;8790;53.590;10.002;2022-08-03T02:18:58;7.38;;;6.68;;
17345;SDS011;8790;53.590;10.002;2022-08-03T02:21:32;7.13;;;6.50;;
17345;SDS011;8790;53.590;10.002;2022-08-03T02:24:07;6.45;;;5.95;;
17345;SDS011;8790;53.590;10.002;2022-08-03T02:26:39;7.15;;;6.55;;
17345;SDS011;8790;53.590;10.002;2022-08-03T02:29:13;7.28;;;6.68;;
17345;SDS011;8790;53.590;10.002;2022-08-03T02:31:52;7.57;;;6.82;;
17345;SDS011;8790;53.590;10.002;2022-08-03T02:34:28;7.38;;;6.68;;
17345;SDS011;8790;53.590;10.002;2022-08-03T02:37:03;7.50;;;6.68;;
17345;SDS011;8790;53.590;10.002;2022-08-03T02:39:36;7.90;;;7.10;;
17345;SDS011;8790;53.590;10.002;2022-08-03T02:42:10;7.47;;;6.80;;
17345;SDS011;8790;53.590;10.002;2022-08-03T02:44:44;7.35;;;6.75;;
17345;SDS011;8790;53.590;10.002;2022-08-03T02:47:21;7.68;;;6.53;;
17345;SDS011;8790;53.590;10.002;2022-08-03T02:49:54;7.82;;;6.65;;
17345;SDS011;8790;53.590;10.002;2022-08-03T02:52:27;6.75;;;6.15;;
17345;SDS011;8790;53.590;10.002;2022-08-03T02:55:01;7.30;;;6.65;;
17345;SDS011;8790;53.590;10.002;2022-08-03T02:57:34;7.47;;;6.88;;
17345;SDS011;8790;53.590;10.002;2022-08-03T03:00:07;7.50;;;6.80;;
17345;SDS011;8790;53.590;10.002;2022-08-03T03:02:41;7.30;;;6.70;;
17345;SDS011;8790;53.590;10.002;2022-08-03T03:05:13;7.97;;;7.15;;
17345;SDS011;8790;53.590;10.002;2022-08-03T03:07:45;7.57;;;6.72;;
17345;SDS011;8790;53.590;10.002;2022-08-03T03:10:17;7.50;;;6.82;;
17345;SDS011;8790;53.590;10.002;2022-08-03T03:12:51;8.40;;;7.47;;
17345;SDS011;8790;53.590;10.002;2022-08-03T03:15:26;7.93;;;7.22;;
17345;SDS011;8790;53.590;10.002;2022-08-03T03:17:59;7.85;;;7.25;;
17345;SDS011;8790;53.590;10.002;2022-08-03T03:20:31;7.75;;;7.05;;
17345;SDS011;8790;53.590;10.002;2022-08-03T03:23:04;7.68;;;7.05;;
17345;SDS011;8790;53.590;10.002;2022-08-03T03:25:37;8.10;;;7.32;;
17345;SDS011;8790;53.590;10.002;2022-08-03T03:28:09;8.30;;;7.18;;
17345;SDS011;8790;53.590;10.002;2022-08-03T03:30:41;8.25;;;7.45;;
17345;SDS011;8790;53.590;10.002;2022-08-03T03:33:14;9.20;;;7.65;;
17345;SDS011;8790;53.590;10.002;2022-08-03T03:35:47;7.97;;;7.22;;
17345;SDS011;8790;53.590;10.002;2022-08-03T03:38:20;8.00;;;7.28;;
17345;SDS011;8790;53.590;10.002;2022-08-03T03:40:53;8.40;;;7.22;;
17345;SDS011;8790;53.590;10.002;2022-08-03T03:43:25;8.30;;;7.45;;
17345;SDS011;8790;53.590;10.002;2022-08-03T03:45:58;8.10;;;7.40;;
17345;SDS011;8790;53.590;10.002;2022-08-03T03:48:32;7.82;;;7.07;;
17345;SDS011;8790;53.590;10.002;2022-08-03T03:51:04;7.97;;;7.25;;
17345;SDS011;8790;53.590;10.002;2022-08-03T03:53:36;7.95;;;7.35;;
17345;SDS011;8790;53.590;10.002;2022-08-03T03:56:08;7.95;;;7.25;;
17345;SDS011;8790;53.590;10.002;2022-08-03T03:58:40;7.70;;;7.00;;
17345;SDS011;8790;53.590;10.002;2022-08-03T04:01:12;8.43;;;7.35;;
17345;SDS011;8790;53.590;10.002;2022-08-03T04:03:45;8.00;;;7.20;;
17345;SDS011;8790;53.590;10.002;2022-08-03T04:06:17;8.50;;;7.78;;
17345;SDS011;8790;53.590;10.002;2022-08-03T04:09:06;8.35;;;7.65;;
17345;SDS011;8790;53.590;10.002;2022-08-03T04:11:58;7.88;;;7.20;;
17345;SDS011;8790;53.590;10.002;2022-08-03T04:14:32;8.32;;;7.38;;
17345;SDS011;8790;53.590;10.002;2022-08-03T04:17:06;8.25;;;7.50;;
17345;SDS011;8790;53.590;10.002;2022-08-03T04:19:44;8.10;;;7.40;;
17345;SDS011;8790;53.590;10.002;2022-08-03T04:22:20;8.90;;;7.45;;
17345;SDS011;8790;53.590;10.002;2022-08-03T04:24:56;8.20;;;7.47;;
17345;SDS011;8790;53.590;10.002;2022-08-03T04:27:34;8.10;;;7.38;;
17345;SDS011;8790;53.590;10.002;2022-08-03T04:30:08;7.95;;;7.25;;
17345;SDS011;8790;53.590;10.002;2022-08-03T04:32:41;8.73;;;7.82;;
17345;SDS011;8790;53.590;10.002;2022-08-03T04:35:16;8.45;;;7.65;;
17345;SDS011;8790;53.590;10.002;2022-08-03T04:37:49;8.88;;;7.97;;
17345;SDS011;8790;53.590;10.002;2022-08-03T04:40:24;8.75;;;7.88;;
17345;SDS011;8790;53.590;10.002;2022-08-03T04:42:58;7.95;;;7.25;;
17345;SDS011;8790;53.590;10.002;2022-08-03T04:45:30;9.20;;;8.40;;
17345;SDS011;8790;53.590;10.002;2022-08-03T04:48:04;9.45;;;8.27;;
17345;SDS011;8790;53.590;10.002;2022-08-03T04:50:38;8.90;;;8.00;;
17345;SDS011;8790;53.590;10.002;2022-08-03T04:53:11;9.00;;;8.30;;
17345;SDS011;8790;53.590;10.002;2022-08-03T04:55:43;8.88;;;7.97;;
17345;SDS011;8790;53.590;10.002;2022-08-03T04:58:14;9.45;;;8.02;;
17345;SDS011;8790;53.590;10.002;2022-08-03T05:00:46;8.65;;;7.80;;
17345;SDS011;8790;53.590;10.002;2022-08-03T05:03:20;8.98;;;8.18;;
17345;SDS011;8790;53.590;10.002;2022-08-03T05:05:53;9.75;;;8.65;;
17345;SDS011;8790;53.590;10.002;2022-08-03T05:08:25;9.00;;;8.10;;
17345;SDS011;8790;53.590;10.002;2022-08-03T05:10:57;9.80;;;7.93;;
17345;SDS011;8790;53.590;10.002;2022-08-03T05:13:29;9.20;;;8.40;;
17345;SDS011;8790;53.590;10.002;2022-08-03T05:16:01;9.40;;;8.50;;
17345;SDS011;8790;53.590;10.002;2022-08-03T05:18:33;9.65;;;7.68;;
17345;SDS011;8790;53.590;10.002;2022-08-03T05:21:06;9.73;;;8.30;;
17345;SDS011;8790;53.590;10.002;2022-08-03T05:23:38;9.43;;;8.43;;
17345;SDS011;8790;53.590;10.002;2022-08-03T05:26:10;8.95;;;8.15;;
17345;SDS011;8790;53.590;10.002;2022-08-03T05:28:42;9.20;;;8.23;;
17345;SDS011;8790;53.590;10.002;2022-08-03T05:31:13;9.02;;;8.23;;
17345;SDS011;8790;53.590;10.002;2022-08-03T05:33:45;8.23;;;7.43;;
17345;SDS011;8790;53.590;10.002;2022-08-03T05:36:19;8.48;;;7.57;;
17345;SDS011;8790;53.590;10.002;2022-08-03T05:38:50;9.93;;;8.32;;
17345;SDS011;8790;53.590;10.002;2022-08-03T05:41:22;11.23;;;8.73;;
17345;SDS011;8790;53.590;10.002;2022-08-03T05:43:54;8.73;;;7.90;;
17345;SDS011;8790;53.590;10.002;2022-08-03T05:46:27;10.75;;;9.00;;
17345;SDS011;8790;53.590;10.002;2022-08-03T05:48:58;11.82;;;10.10;;
17345;SDS011;8790;53.590;10.002;2022-08-03T05:51:31;10.32;;;8.30;;
17345;SDS011;8790;53.590;10.002;2022-08-03T05:54:03;8.70;;;7.80;;
17345;SDS011;8790;53.590;10.002;2022-08-03T05:56:35;11.15;;;8.07;;
17345;SDS011;8790;53.590;10.002;2022-08-03T05:59:07;7.78;;;6.97;;
17345;SDS011;8790;53.590;10.002;2022-08-03T06:01:38;8.20;;;7.38;;
17345;SDS011;8790;53.590;10.002;2022-08-03T06:04:10;10.23;;;7.65;;
17345;SDS011;8790;53.590;10.002;2022-08-03T06:06:43;9.60;;;7.82;;
17345;SDS011;8790;53.590;10.002;2022-08-03T06:09:15;8.90;;;8.07;;
17345;SDS011;8790;53.590;10.002;2022-08-03T06:11:47;11.18;;;7.80;;
17345;SDS011;8790;53.590;10.002;2022-08-03T06:14:18;9.93;;;8.38;;
17345;SDS011;8790;53.590;10.002;2022-08-03T06:16:50;9.98;;;7.50;;
17345;SDS011;8790;53.590;10.002;2022-08-03T06:19:22;9.70;;;7.38;;
17345;SDS011;8790;53.590;10.002;2022-08-03T06:21:55;10.63;;;7.00;;
17345;SDS011;8790;53.590;10.002;2022-08-03T06:24:27;11.48;;;7.53;;
17345;SDS011;8790;53.590;10.002;2022-08-03T06:26:59;11.63;;;6.72;;
17345;SDS011;8790;53.590;10.002;2022-08-03T06:29:30;10.98;;;6.55;;
17345;SDS011;8790;53.590;10.002;2022-08-03T06:32:02;6.85;;;6.15;;
17345;SDS011;8790;53.590;10.002;2022-08-03T06:34:34;6.90;;;6.20;;
17345;SDS011;8790;53.590;10.002;2022-08-03T06:37:07;9.50;;;6.07;;
17345;SDS011;8790;53.590;10.002;2022-08-03T06:39:39;8.55;;;5.70;;
17345;SDS011;8790;53.590;10.002;2022-08-03T06:42:10;7.70;;;6.13;;
17345;SDS011;8790;53.590;10.002;2022-08-03T06:44:42;7.88;;;6.50;;
17345;SDS011;8790;53.590;10.002;2022-08-03T06:47:14;8.45;;;6.03;;
17345;SDS011;8790;53.590;10.002;2022-08-03T06:49:46;8.32;;;6.55;;
17345;SDS011;8790;53.590;10.002;2022-08-03T06:52:19;7.22;;;6.63;;
17345;SDS011;8790;53.590;10.002;2022-08-03T06:54:51;7.50;;;5.90;;
17345;SDS011;8790;53.590;10.002;2022-08-03T06:57:22;6.38;;;5.50;;
17345;SDS011;8790;53.590;10.002;2022-08-03T06:59:54;8.60;;;6.20;;
17345;SDS011;8790;53.590;10.002;2022-08-03T07:02:30;7.70;;;6.57;;
17345;SDS011;8790;53.590;10.002;2022-08-03T07:05:02;8.70;;;6.53;;
17345;SDS011;8790;53.590;10.002;2022-08-03T07:07:35;7.32;;;5.88;;
17345;SDS011;8790;53.590;10.002;2022-08-03T07:10:08;7.22;;;5.88;;
17345;SDS011;8790;53.590;10.002;2022-08-03T07:12:41;9.30;;;6.60;;
17345;SDS011;8790;53.590;10.002;2022-08-03T07:15:13;6.95;;;6.10;;
17345;SDS011;8790;53.590;10.002;2022-08-03T07:17:44;8.90;;;6.35;;
17345;SDS011;8790;53.590;10.002;2022-08-03T07:20:18;6.53;;;5.93;;
17345;SDS011;8790;53.590;10.002;2022-08-03T07:22:51;7.18;;;5.97;;
17345;SDS011;8790;53.590;10.002;2022-08-03T07:25:22;7.43;;;6.00;;
17345;SDS011;8790;53.590;10.002;2022-08-03T07:27:54;9.77;;;5.95;;
17345;SDS011;8790;53.590;10.002;2022-08-03T07:30:26;7.63;;;5.78;;
17345;SDS011;8790;53.590;10.002;2022-08-03T07:32:58;11.07;;;5.53;;
17345;SDS011;8790;53.590;10.002;2022-08-03T07:35:29;5.82;;;5.22;;
17345;SDS011;8790;53.590;10.002;2022-08-03T07:38:02;7.28;;;5.40;;
17345;SDS011;8790;53.590;10.002;2022-08-03T07:40:34;9.93;;;5.00;;
17345;SDS011;8790;53.590;10.002;2022-08-03T07:43:06;5.80;;;5.05;;
17345;SDS011;8790;53.590;10.002;2022-08-03T07:45:38;7.28;;;4.90;;
17345;SDS011;8790;53.590;10.002;2022-08-03T07:48:09;6.85;;;5.00;;
17345;SDS011;8790;53.590;10.002;2022-08-03T07:50:41;8.27;;;4.97;;
17345;SDS011;8790;53.590;10.002;2022-08-03T07:53:14;6.63;;;4.63;;
17345;SDS011;8790;53.590;10.002;2022-08-03T07:55:49;9.00;;;4.43;;
17345;SDS011;8790;53.590;10.002;2022-08-03T07:58:20;3.75;;;3.13;;
17345;SDS011;8790;53.590;10.002;2022-08-03T08:00:53;5.93;;;3.05;;
17345;SDS011;8790;53.590;10.002;2022-08-03T08:03:25;4.72;;;3.25;;
17345;SDS011;8790;53.590;10.002;2022-08-03T08:05:56;5.00;;;2.75;;
17345;SDS011;8790;53.590;10.002;2022-08-03T08:08:29;3.30;;;2.50;;
17345;SDS011;8790;53.590;10.002;2022-08-03T08:11:01;3.83;;;2.78;;
17345;SDS011;8790;53.590;10.002;2022-08-03T08:13:33;3.60;;;2.80;;
17345;SDS011;8790;53.590;10.002;2022-08-03T08:16:06;3.20;;;2.65;;
17345;SDS011;8790;53.590;10.002;2022-08-03T08:18:38;4.15;;;3.10;;
17345;SDS011;8790;53.590;10.002;2022-08-03T08:21:10;6.05;;;2.88;;
17345;SDS011;8790;53.590;10.002;2022-08-03T08:23:43;5.28;;;2.80;;
17345;SDS011;8790;53.590;10.002;2022-08-03T08:26:14;3.17;;;2.60;;
17345;SDS011;8790;53.590;10.002;2022-08-03T08:28:46;3.92;;;2.65;;
17345;SDS011;8790;53.590;10.002;2022-08-03T08:31:19;3.45;;;2.55;;
17345;SDS011;8790;53.590;10.002;2022-08-03T08:33:51;5.32;;;2.55;;
17345;SDS011;8790;53.590;10.002;2022-08-03T08:36:23;4.43;;;2.60;;
17345;SDS011;8790;53.590;10.002;2022-08-03T08:38:56;5.05;;;2.70;;
17345;SDS011;8790;53.590;10.002;2022-08-03T08:41:27;2.85;;;2.22;;
17345;SDS011;8790;53.590;10.002;2022-08-03T08:44:03;4.78;;;2.83;;
17345;SDS011;8790;53.590;10.002;2022-08-03T08:46:37;4.50;;;2.72;;
17345;SDS011;8790;53.590;10.002;2022-08-03T08:49:09;3.47;;;3.17;;
17345;SDS011;8790;53.590;10.002;2022-08-03T08:51:46;5.88;;;2.60;;
17345;SDS011;8790;53.590;10.002;2022-08-03T08:54:22;3.80;;;2.85;;
17345;SDS011;8790;53.590;10.002;2022-08-03T08:56:55;7.38;;;3.30;;
17345;SDS011;8790;53.590;10.002;2022-08-03T08:59:31;5.95;;;2.97;;
17345;SDS011;8790;53.590;10.002;2022-08-03T09:02:03;5.72;;;4.28;;
17345;SDS011;8790;53.590;10.002;2022-08-03T09:04:36;5.20;;;3.05;;
17345;SDS011;8790;53.590;10.002;2022-08-03T09:07:09;4.68;;;3.20;;
17345;SDS011;8790;53.590;10.002;2022-08-03T09:09:42;4.18;;;2.83;;
17345;SDS011;8790;53.590;10.002;2022-08-03T09:12:14;4.57;;;2.95;;
17345;SDS011;8790;53.590;10.002;2022-08-03T09:14:46;4.63;;;2.60;;
17345;SDS011;8790;53.590;10.002;2022-08-03T09:17:18;4.47;;;2.67;;
17345;SDS011;8790;53.590;10.002;2022-08-03T09:20:02;3.25;;;2.47;;
17345;SDS011;8790;53.590;10.002;2022-08-03T09:22:43;5.47;;;2.53;;
17345;SDS011;8790;53.590;10.002;2022-08-03T09:25:28;4.78;;;3.05;;
17345;SDS011;8790;53.590;10.002;2022-08-03T09:28:05;3.60;;;2.58;;
17345;SDS011;8790;53.590;10.002;2022-08-03T09:30:39;7.03;;;2.90;;
17345;SDS011;8790;53.590;10.002;2022-08-03T09:33:13;4.45;;;2.60;;
17345;SDS011;8790;53.590;10.002;2022-08-03T09:35:46;5.32;;;2.63;;
17345;SDS011;8790;53.590;10.002;2022-08-03T09:38:19;2.60;;;2.40;;
17345;SDS011;8790;53.590;10.002;2022-08-03T09:40:55;4.10;;;2.40;;
17345;SDS011;8790;53.590;10.002;2022-08-03T09:43:27;8.80;;;2.53;;
17345;SDS011;8790;53.590;10.002;2022-08-03T09:46:16;3.88;;;2.40;;
17345;SDS011;8790;53.590;10.002;2022-08-03T09:48:48;5.40;;;2.60;;
17345;SDS011;8790;53.590;10.002;2022-08-03T09:51:23;4.55;;;2.58;;
17345;SDS011;8790;53.590;10.002;2022-08-03T09:53:55;4.40;;;2.58;;
17345;SDS011;8790;53.590;10.002;2022-08-03T09:56:42;3.65;;;2.40;;
17345;SDS011;8790;53.590;10.002;2022-08-03T09:59:22;3.08;;;2.03;;
17345;SDS011;8790;53.590;10.002;2022-08-03T10:01:54;5.70;;;2.50;;
17345;SDS011;8790;53.590;10.002;2022-08-03T10:04:27;5.05;;;2.30;;
17345;SDS011;8790;53.590;10.002;2022-08-03T10:07:03;5.90;;;2.35;;
17345;SDS011;8790;53.590;10.002;2022-08-03T10:09:36;3.83;;;1.92;;
17345;SDS011;8790;53.590;10.002;2022-08-03T10:12:10;3.58;;;2.20;;
17345;SDS011;8790;53.590;10.002;2022-08-03T10:14:43;4.30;;;2.20;;
17345;SDS011;8790;53.590;10.002;2022-08-03T10:17:16;5.03;;;2.17;;
17345;SDS011;8790;53.590;10.002;2022-08-03T10:19:48;3.75;;;2.30;;
17345;SDS011;8790;53.590;10.002;2022-08-03T10:22:21;5.03;;;2.20;;
17345;SDS011;8790;53.590;10.002;2022-08-03T10:24:54;3.20;;;2.20;;
17345;SDS011;8790;53.590;10.002;2022-08-03T10:27:31;5.32;;;2.50;;
17345;SDS011;8790;53.590;10.002;2022-08-03T10:30:05;4.95;;;2.20;;
17345;SDS011;8790;53.590;10.002;2022-08-03T10:32:39;4.78;;;2.22;;
17345;SDS011;8790;53.590;10.002;2022-08-03T10:35:13;3.78;;;2.58;;
17345;SDS011;8790;53.590;10.002;2022-08-03T10:37:49;4.88;;;2.30;;
17345;SDS011;8790;53.590;10.002;2022-08-03T10:40:25;4.80;;;2.55;;
17345;SDS011;8790;53.590;10.002;2022-08-03T10:43:02;3.75;;;2.00;;
17345;SDS011;8790;53.590;10.002;2022-08-03T10:45:39;3.85;;;1.80;;
17345;SDS011;8790;53.590;10.002;2022-08-03T10:48:12;7.13;;;2.47;;
17345;SDS011;8790;53.590;10.002;2022-08-03T10:50:44;5.55;;;2.30;;
17345;SDS011;8790;53.590;10.002;2022-08-03T10:53:32;4.00;;;2.20;;
17345;SDS011;8790;53.590;10.002;2022-08-03T10:56:05;3.95;;;2.10;;
17345;SDS011;8790;53.590;10.002;2022-08-03T10:59:15;4.60;;;2.10;;
17345;SDS011;8790;53.590;10.002;2022-08-03T11:01:48;5.00;;;2.13;;
17345;SDS011;8790;53.590;10.002;2022-08-03T11:04:21;3.92;;;2.15;;
17345;SDS011;8790;53.590;10.002;2022-08-03T11:09:51;5.80;;;2.10;;
17345;SDS011;8790;53.590;10.002;2022-08-03T11:12:25;3.70;;;2.05;;
17345;SDS011;8790;53.590;10.002;2022-08-03T11:14:59;6.32;;;2.30;;
17345;SDS011;8790;53.590;10.002;2022-08-03T11:17:33;3.85;;;2.03;;
17345;SDS011;8790;53.590;10.002;2022-08-03T11:20:06;2.63;;;1.95;;
17345;SDS011;8790;53.590;10.002;2022-08-03T11:22:48;5.13;;;1.92;;
17345;SDS011;8790;53.590;10.002;2022-08-03T11:25:23;3.80;;;2.17;;
17345;SDS011;8790;53.590;10.002;2022-08-03T11:31:03;4.38;;;1.90;;
17345;SDS011;8790;53.590;10.002;2022-08-03T11:34:17;4.97;;;2.00;;
17345;SDS011;8790;53.590;10.002;2022-08-03T11:39:50;6.35;;;2.25;;
17345;SDS011;8790;53.590;10.002;2022-08-03T11:42:38;3.97;;;2.08;;
17345;SDS011;8790;53.590;10.002;2022-08-03T11:45:13;4.47;;;2.30;;
17345;SDS011;8790;53.590;10.002;2022-08-03T11:47:46;4.32;;;2.20;;
17345;SDS011;8790;53.590;10.002;2022-08-03T11:50:22;4.15;;;2.30;;
17345;SDS011;8790;53.590;10.002;2022-08-03T11:52:54;7.50;;;2.47;;
17345;SDS011;8790;53.590;10.002;2022-08-03T11:55:25;3.90;;;2.03;;
17345;SDS011;8790;53.590;10.002;2022-08-03T11:58:00;2.67;;;1.80;;
17345;SDS011;8790;53.590;10.002;2022-08-03T12:00:32;6.05;;;2.40;;
17345;SDS011;8790;53.590;10.002;2022-08-03T12:03:05;4.40;;;2.10;;
17345;SDS011;8790;53.590;10.002;2022-08-03T12:05:39;3.63;;;2.38;;
17345;SDS011;8790;53.590;10.002;2022-08-03T12:08:13;4.00;;;2.10;;
17345;SDS011;8790;53.590;10.002;2022-08-03T12:10:47;5.18;;;2.15;;
17345;SDS011;8790;53.590;10.002;2022-08-03T12:13:20;3.95;;;1.98;;
17345;SDS011;8790;53.590;10.002;2022-08-03T12:15:53;3.67;;;2.00;;
17345;SDS011;8790;53.590;10.002;2022-08-03T12:18:29;2.92;;;1.80;;
17345;SDS011;8790;53.590;10.002;2022-08-03T12:21:03;5.82;;;2.03;;
17345;SDS011;8790;53.590;10.002;2022-08-03T12:23:36;3.97;;;2.00;;
17345;SDS011;8790;53.590;10.002;2022-08-03T12:26:08;6.40;;;2.45;;
17345;SDS011;8790;53.590;10.002;2022-08-03T12:28:45;6.63;;;2.03;;
17345;SDS011;8790;53.590;10.002;2022-08-03T12:31:18;4.82;;;2.20;;
17345;SDS011;8790;53.590;10.002;2022-08-03T12:33:54;8.30;;;2.25;;
17345;SDS011;8790;53.590;10.002;2022-08-03T12:36:32;6.07;;;2.25;;
17345;SDS011;8790;53.590;10.002;2022-08-03T12:39:07;5.70;;;2.00;;
17345;SDS011;8790;53.590;10.002;2022-08-03T12:41:40;3.53;;;2.10;;
17345;SDS011;8790;53.590;10.002;2022-08-03T12:44:12;5.40;;;2.28;;
17345;SDS011;8790;53.590;10.002;2022-08-03T12:46:44;4.22;;;2.28;;
17345;SDS011;8790;53.590;10.002;2022-08-03T12:49:17;2.95;;;1.83;;
17345;SDS011;8790;53.590;10.002;2022-08-03T12:51:56;4.97;;;2.10;;
17345;SDS011;8790;53.590;10.002;2022-08-03T12:54:29;2.60;;;1.80;;
17345;SDS011;8790;53.590;10.002;2022-08-03T12:57:03;5.78;;;2.17;;
17345;SDS011;8790;53.590;10.002;2022-08-03T12:59:37;5.20;;;2.20;;
17345;SDS011;8790;53.590;10.002;2022-08-03T13:02:15;5.07;;;2.40;;
17345;SDS011;8790;53.590;10.002;2022-08-03T13:04:49;5.70;;;2.03;;
17345;SDS011;8790;53.590;10.002;2022-08-03T13:07:21;4.13;;;2.20;;
17345;SDS011;8790;53.590;10.002;2022-08-03T13:09:54;6.30;;;2.80;;
17345;SDS011;8790;53.590;10.002;2022-08-03T13:12:26;4.15;;;2.20;;
17345;SDS011;8790;53.590;10.002;2022-08-03T13:14:59;6.20;;;2.20;;
17345;SDS011;8790;53.590;10.002;2022-08-03T13:17:31;5.40;;;2.30;;
17345;SDS011;8790;53.590;10.002;2022-08-03T13:20:05;7.30;;;2.47;;
17345;SDS011;8790;53.590;10.002;2022-08-03T13:22:37;5.25;;;2.13;;
17345;SDS011;8790;53.590;10.002;2022-08-03T13:25:09;4.07;;;2.08;;
17345;SDS011;8790;53.590;10.002;2022-08-03T13:27:40;4.88;;;2.00;;
17345;SDS011;8790;53.590;10.002;2022-08-03T13:30:12;4.60;;;2.08;;
17345;SDS011;8790;53.590;10.002;2022-08-03T13:32:46;3.17;;;2.08;;
17345;SDS011;8790;53.590;10.002;2022-08-03T13:35:19;4.38;;;2.00;;
17345;SDS011;8790;53.590;10.002;2022-08-03T13:37:50;5.75;;;2.13;;
17345;SDS011;8790;53.590;10.002;2022-08-03T13:40:22;4.07;;;2.10;;
17345;SDS011;8790;53.590;10.002;2022-08-03T13:42:54;5.47;;;2.15;;
17345;SDS011;8790;53.590;10.002;2022-08-03T13:45:25;6.32;;;2.42;;
17345;SDS011;8790;53.590;10.002;2022-08-03T13:47:58;8.02;;;2.35;;
17345;SDS011;8790;53.590;10.002;2022-08-03T13:50:31;4.70;;;2.00;;
17345;SDS011;8790;53.590;10.002;2022-08-03T13:53:03;4.50;;;2.38;;
17345;SDS011;8790;53.590;10.002;2022-08-03T13:55:35;5.00;;;2.28;;
17345;SDS011;8790;53.590;10.002;2022-08-03T13:58:06;4.68;;;2.35;;
17345;SDS011;8790;53.590;10.002;2022-08-03T14:00:41;7.15;;;2.60;;
17345;SDS011;8790;53.590;10.002;2022-08-03T14:03:13;4.72;;;2.40;;
17345;SDS011;8790;53.590;10.002;2022-08-03T14:05:45;4.15;;;2.13;;
17345;SDS011;8790;53.590;10.002;2022-08-03T14:08:17;3.70;;;2.13;;
17345;SDS011;8790;53.590;10.002;2022-08-03T14:10:49;5.78;;;2.00;;
17345;SDS011;8790;53.590;10.002;2022-08-03T14:13:21;3.97;;;2.30;;
17345;SDS011;8790;53.590;10.002;2022-08-03T14:15:52;4.13;;;2.30;;
17345;SDS011;8790;53.590;10.002;2022-08-03T14:18:24;5.97;;;2.03;;
17345;SDS011;8790;53.590;10.002;2022-08-03T14:20:57;3.80;;;2.28;;
17345;SDS011;8790;53.590;10.002;2022-08-03T14:23:29;4.13;;;2.35;;
17345;SDS011;8790;53.590;10.002;2022-08-03T14:26:01;3.60;;;2.08;;
17345;SDS011;8790;53.590;10.002;2022-08-03T14:28:33;5.35;;;2.47;;
17345;SDS011;8790;53.590;10.002;2022-08-03T14:31:05;5.43;;;2.40;;
17345;SDS011;8790;53.590;10.002;2022-08-03T14:33:38;6.28;;;2.30;;
17345;SDS011;8790;53.590;10.002;2022-08-03T14:36:11;3.10;;;2.60;;
17345;SDS011;8790;53.590;10.002;2022-08-03T14:38:42;7.80;;;2.45;;
17345;SDS011;8790;53.590;10.002;2022-08-03T14:41:15;2.33;;;2.00;;
17345;SDS011;8790;53.590;10.002;2022-08-03T14:43:47;2.60;;;1.92;;
17345;SDS011;8790;53.590;10.002;2022-08-03T14:46:18;4.45;;;2.22;;
17345;SDS011;8790;53.590;10.002;2022-08-03T14:48:50;4.18;;;2.08;;
17345;SDS011;8790;53.590;10.002;2022-08-03T14:51:23;6.15;;;2.22;;
17345;SDS011;8790;53.590;10.002;2022-08-03T14:53:55;4.55;;;2.25;;
17345;SDS011;8790;53.590;10.002;2022-08-03T14:56:27;3.38;;;2.05;;
17345;SDS011;8790;53.590;10.002;2022-08-03T14:58:58;5.50;;;2.15;;
17345;SDS011;8790;53.590;10.002;2022-08-03T15:01:30;4.95;;;2.22;;
17345;SDS011;8790;53.590;10.002;2022-08-03T15:04:02;4.78;;;2.03;;
17345;SDS011;8790;53.590;10.002;2022-08-03T15:06:35;4.40;;;2.17;;
17345;SDS011;8790;53.590;10.002;2022-08-03T15:09:06;6.45;;;2.20;;
17345;SDS011;8790;53.590;10.002;2022-08-03T15:11:38;4.78;;;2.38;;
17345;SDS011;8790;53.590;10.002;2022-08-03T15:14:10;5.57;;;2.33;;
17345;SDS011;8790;53.590;10.002;2022-08-03T15:16:42;3.97;;;2.33;;
17345;SDS011;8790;53.590;10.002;2022-08-03T15:19:13;4.03;;;2.40;;
17345;SDS011;8790;53.590;10.002;2022-08-03T15:21:46;4.60;;;2.20;;
17345;SDS011;8790;53.590;10.002;2022-08-03T15:24:18;6.45;;;2.50;;
17345;SDS011;8790;53.590;10.002;2022-08-03T15:26:50;5.35;;;2.25;;
17345;SDS011;8790;53.590;10.002;2022-08-03T15:29:22;7.20;;;2.40;;
17345;SDS011;8790;53.590;10.002;2022-08-03T15:31:53;3.60;;;2.20;;
17345;SDS011;8790;53.590;10.002;2022-08-03T15:34:25;3.88;;;2.03;;
17345;SDS011;8790;53.590;10.002;2022-08-03T15:36:58;5.95;;;1.90;;